sensor_id;sensor_type;location;lat;lon;timestamp;P1;durP1;ratioP1;P2;durP2;ratioP2
4986;SDS011;12674;51.500;7.552;2023-05-07T00:01:04;7.50;;;6.60;;
4986;SDS011;12674;51.500;7.552;2023-05-07T00:03:07;7.70;;;5.75;;
4986;SDS011;12674;51.500;7.552;2023-05-07T00:05:11;8.95;;;5.88;;
4986;SDS011;12674;51.500;7.552;2023-05-07T00:07:15;7.25;;;6.40;;
4986;SDS011;12674;51.500;7.552;2023-05-07T00:09:17;10.32;;;6.28;;
4986;SDS011;12674;51.500;7.552;2023-05-07T00:11:20;7.38;;;6.68;;
4986;SDS011;12674;51.500;7.552;2023-05-07T00:13:25;9.15;;;6.80;;
4986;SDS011;12674;51.500;7.552;2023-05-07T00:15:28;10.65;;;6.93;;
4986;SDS011;12674;51.500;7.552;2023-05-07T00:17:32;11.02;;;6.00;;
4986;SDS011;12674;51.500;7.552;2023-05-07T00:19:35;7.03;;;6.28;;
4986;SDS011;12674;51.500;7.552;2023-05-07T00:21:38;8.40;;;5.90;;
4986;SDS011;12674;51.500;7.552;2023-05-07T00:23:41;6.10;;;5.50;;
4986;SDS011;12674;51.500;7.552;2023-05-07T00:25:44;8.10;;;5.63;;
4986;SDS011;12674;51.500;7.552;2023-05-07T00:27:47;9.80;;;6.32;;
4986;SDS011;12674;51.500;7.552;2023-05-07T00:29:51;8.33;;;6.27;;
4986;SDS011;12674;51.500;7.552;2023-05-07T00:31:54;7.05;;;5.22;;
4986;SDS011;12674;51.500;7.552;2023-05-07T00:33:57;13.07;;;5.57;;
4986;SDS011;12674;51.500;7.552;2023-05-07T00:36:00;7.40;;;5.88;;
4986;SDS011;12674;51.500;7.552;2023-05-07T00:38:03;6.95;;;5.57;;
4986;SDS011;12674;51.500;7.552;2023-05-07T00:40:07;8.10;;;5.95;;
4986;SDS011;12674;51.500;7.552;2023-05-07T00:42:11;6.55;;;5.40;;
4986;SDS011;12674;51.500;7.552;2023-05-07T00:44:14;10.80;;;6.25;;
4986;SDS011;12674;51.500;7.552;2023-05-07T00:46:18;7.05;;;5.65;;
4986;SDS011;12674;51.500;7.552;2023-05-07T00:48:22;8.57;;;6.47;;
4986;SDS011;12674;51.500;7.552;2023-05-07T00:50:25;9.45;;;5.90;;
4986;SDS011;12674;51.500;7.552;2023-05-07T00:52:29;11.10;;;5.50;;
4986;SDS011;12674;51.500;7.552;2023-05-07T00:54:32;10.27;;;6.32;;
4986;SDS011;12674;51.500;7.552;2023-05-07T00:56:36;12.40;;;5.72;;
4986;SDS011;12674;51.500;7.552;2023-05-07T00:58:40;6.35;;;5.40;;
4986;SDS011;12674;51.500;7.552;2023-05-07T01:00:43;7.20;;;6.03;;
4986;SDS011;12674;51.500;7.552;2023-05-07T01:02:48;7.68;;;5.55;;
4986;SDS011;12674;51.500;7.552;2023-05-07T01:04:51;12.02;;;5.45;;
4986;SDS011;12674;51.500;7.552;2023-05-07T01:06:55;12.75;;;6.53;;
4986;SDS011;12674;51.500;7.552;2023-05-07T01:09:00;10.60;;;6.57;;
4986;SDS011;12674;51.500;7.552;2023-05-07T01:11:03;8.55;;;5.95;;
4986;SDS011;12674;51.500;7.552;2023-05-07T01:13:06;8.80;;;5.97;;
4986;SDS011;12674;51.500;7.552;2023-05-07T01:15:09;10.90;;;5.97;;
4986;SDS011;12674;51.500;7.552;2023-05-07T01:17:13;9.30;;;6.50;;
4986;SDS011;12674;51.500;7.552;2023-05-07T01:19:18;7.28;;;5.63;;
4986;SDS011;12674;51.500;7.552;2023-05-07T01:21:22;9.23;;;6.30;;
4986;SDS011;12674;51.500;7.552;2023-05-07T01:23:33;6.13;;;5.60;;
4986;SDS011;12674;51.500;7.552;2023-05-07T01:25:37;8.63;;;6.03;;
4986;SDS011;12674;51.500;7.552;2023-05-07T01:27:40;11.00;;;6.23;;
4986;SDS011;12674;51.500;7.552;2023-05-07T01:29:43;8.10;;;6.80;;
4986;SDS011;12674;51.500;7.552;2023-05-07T01:31:46;18.80;;;7.20;;
4986;SDS011;12674;51.500;7.552;2023-05-07T01:33:50;10.05;;;6.97;;
4986;SDS011;12674;51.500;7.552;2023-05-07T01:35:54;10.32;;;6.50;;
4986;SDS011;12674;51.500;7.552;2023-05-07T01:37:59;8.88;;;5.97;;
4986;SDS011;12674;51.500;7.552;2023-05-07T01:40:07;7.18;;;5.93;;
4986;SDS011;12674;51.500;7.552;2023-05-07T01:42:11;7.40;;;5.60;;
4986;SDS011;12674;51.500;7.552;2023-05-07T01:44:14;8.85;;;5.80;;
4986;SDS011;12674;51.500;7.552;2023-05-07T01:46:18;6.97;;;5.72;;
4986;SDS011;12674;51.500;7.552;2023-05-07T01:48:21;7.95;;;5.68;;
4986;SDS011;12674;51.500;7.552;2023-05-07T01:50:24;7.95;;;6.10;;
4986;SDS011;12674;51.500;7.552;2023-05-07T01:52:28;7.78;;;6.28;;
4986;SDS011;12674;51.500;7.552;2023-05-07T01:54:31;14.82;;;7.00;;
4986;SDS011;12674;51.500;7.552;2023-05-07T01:56:36;6.05;;;5.00;;
4986;SDS011;12674;51.500;7.552;2023-05-07T01:58:39;16.50;;;6.72;;
4986;SDS011;12674;51.500;7.552;2023-05-07T02:00:42;16.40;;;5.75;;
4986;SDS011;12674;51.500;7.552;2023-05-07T02:02:45;5.68;;;5.18;;
4986;SDS011;12674;51.500;7.552;2023-05-07T02:05:01;7.70;;;6.22;;
4986;SDS011;12674;51.500;7.552;2023-05-07T02:07:04;6.68;;;6.03;;
4986;SDS011;12674;51.500;7.552;2023-05-07T02:09:07;6.93;;;5.60;;
4986;SDS011;12674;51.500;7.552;2023-05-07T02:11:14;8.88;;;6.15;;
4986;SDS011;12674;51.500;7.552;2023-05-07T02:13:19;6.82;;;6.03;;
4986;SDS011;12674;51.500;7.552;2023-05-07T02:15:23;13.07;;;6.10;;
4986;SDS011;12674;51.500;7.552;2023-05-07T02:17:26;9.23;;;6.22;;
4986;SDS011;12674;51.500;7.552;2023-05-07T02:19:33;8.18;;;6.93;;
4986;SDS011;12674;51.500;7.552;2023-05-07T02:21:36;8.05;;;5.90;;
4986;SDS011;12674;51.500;7.552;2023-05-07T02:23:39;8.45;;;5.90;;
4986;SDS011;12674;51.500;7.552;2023-05-07T02:25:42;11.85;;;6.03;;
4986;SDS011;12674;51.500;7.552;2023-05-07T02:27:46;6.25;;;5.65;;
4986;SDS011;12674;51.500;7.552;2023-05-07T02:29:52;6.45;;;5.60;;
4986;SDS011;12674;51.500;7.552;2023-05-07T02:31:55;7.50;;;5.57;;
4986;SDS011;12674;51.500;7.552;2023-05-07T02:33:58;6.75;;;5.30;;
4986;SDS011;12674;51.500;7.552;2023-05-07T02:36:07;6.57;;;4.93;;
4986;SDS011;12674;51.500;7.552;2023-05-07T02:38:17;6.47;;;4.63;;
4986;SDS011;12674;51.500;7.552;2023-05-07T02:40:21;8.73;;;5.28;;
4986;SDS011;12674;51.500;7.552;2023-05-07T02:42:24;8.90;;;5.53;;
4986;SDS011;12674;51.500;7.552;2023-05-07T02:44:27;7.18;;;4.85;;
4986;SDS011;12674;51.500;7.552;2023-05-07T02:46:34;5.45;;;4.63;;
4986;SDS011;12674;51.500;7.552;2023-05-07T02:48:42;6.53;;;4.40;;
4986;SDS011;12674;51.500;7.552;2023-05-07T02:50:45;5.65;;;4.78;;
4986;SDS011;12674;51.500;7.552;2023-05-07T02:52:49;5.10;;;4.55;;
4986;SDS011;12674;51.500;7.552;2023-05-07T02:54:51;6.80;;;5.05;;
4986;SDS011;12674;51.500;7.552;2023-05-07T02:56:55;5.30;;;4.80;;
4986;SDS011;12674;51.500;7.552;2023-05-07T02:58:58;12.02;;;6.00;;
4986;SDS011;12674;51.500;7.552;2023-05-07T03:01:06;9.55;;;6.15;;
4986;SDS011;12674;51.500;7.552;2023-05-07T03:03:20;7.38;;;6.70;;
4986;SDS011;12674;51.500;7.552;2023-05-07T03:05:24;8.73;;;6.53;;
4986;SDS011;12674;51.500;7.552;2023-05-07T03:07:26;10.18;;;8.25;;
4986;SDS011;12674;51.500;7.552;2023-05-07T03:09:30;12.15;;;8.95;;
4986;SDS011;12674;51.500;7.552;2023-05-07T03:11:32;13.90;;;9.53;;
4986;SDS011;12674;51.500;7.552;2023-05-07T03:13:36;16.10;;;9.97;;
4986;SDS011;12674;51.500;7.552;2023-05-07T03:15:39;10.90;;;9.80;;
4986;SDS011;12674;51.500;7.552;2023-05-07T03:17:42;10.87;;;9.83;;
4986;SDS011;12674;51.500;7.552;2023-05-07T03:19:47;10.40;;;9.40;;
4986;SDS011;12674;51.500;7.552;2023-05-07T03:21:50;16.38;;;11.00;;
4986;SDS011;12674;51.500;7.552;2023-05-07T03:23:53;12.00;;;9.53;;
4986;SDS011;12674;51.500;7.552;2023-05-07T03:25:56;11.38;;;10.02;;
4986;SDS011;12674;51.500;7.552;2023-05-07T03:27:59;13.80;;;10.90;;
4986;SDS011;12674;51.500;7.552;2023-05-07T03:30:11;11.23;;;10.00;;
4986;SDS011;12674;51.500;7.552;2023-05-07T03:32:14;11.13;;;10.03;;
4986;SDS011;12674;51.500;7.552;2023-05-07T03:34:18;13.88;;;10.15;;
4986;SDS011;12674;51.500;7.552;2023-05-07T03:36:24;12.83;;;11.23;;
4986;SDS011;12674;51.500;7.552;2023-05-07T03:38:29;11.80;;;10.70;;
4986;SDS011;12674;51.500;7.552;2023-05-07T03:40:32;11.10;;;10.00;;
4986;SDS011;12674;51.500;7.552;2023-05-07T03:42:38;11.53;;;9.27;;
4986;SDS011;12674;51.500;7.552;2023-05-07T03:44:41;12.43;;;9.83;;
4986;SDS011;12674;51.500;7.552;2023-05-07T03:46:43;11.13;;;10.13;;
4986;SDS011;12674;51.500;7.552;2023-05-07T03:48:47;12.80;;;9.80;;
4986;SDS011;12674;51.500;7.552;2023-05-07T03:50:51;10.50;;;9.50;;
4986;SDS011;12674;51.500;7.552;2023-05-07T03:52:56;12.30;;;10.60;;
4986;SDS011;12674;51.500;7.552;2023-05-07T03:54:59;11.50;;;10.18;;
4986;SDS011;12674;51.500;7.552;2023-05-07T03:57:02;11.68;;;10.43;;
4986;SDS011;12674;51.500;7.552;2023-05-07T03:59:05;12.43;;;11.20;;
4986;SDS011;12674;51.500;7.552;2023-05-07T04:01:08;11.87;;;10.50;;
4986;SDS011;12674;51.500;7.552;2023-05-07T04:03:11;12.45;;;11.07;;
4986;SDS011;12674;51.500;7.552;2023-05-07T04:05:14;13.03;;;11.47;;
4986;SDS011;12674;51.500;7.552;2023-05-07T04:07:20;12.20;;;10.90;;
4986;SDS011;12674;51.500;7.552;2023-05-07T04:09:25;12.87;;;10.80;;
4986;SDS011;12674;51.500;7.552;2023-05-07T04:11:30;12.30;;;11.10;;
4986;SDS011;12674;51.500;7.552;2023-05-07T04:13:34;13.40;;;10.75;;
4986;SDS011;12674;51.500;7.552;2023-05-07T04:15:39;11.67;;;10.47;;
4986;SDS011;12674;51.500;7.552;2023-05-07T04:17:45;12.37;;;10.50;;
4986;SDS011;12674;51.500;7.552;2023-05-07T04:19:49;16.83;;;10.63;;
4986;SDS011;12674;51.500;7.552;2023-05-07T04:21:52;10.27;;;9.27;;
4986;SDS011;12674;51.500;7.552;2023-05-07T04:23:56;13.07;;;10.27;;
4986;SDS011;12674;51.500;7.552;2023-05-07T04:26:00;10.40;;;9.30;;
4986;SDS011;12674;51.500;7.552;2023-05-07T04:28:12;13.70;;;9.40;;
4986;SDS011;12674;51.500;7.552;2023-05-07T04:30:16;10.80;;;9.13;;
4986;SDS011;12674;51.500;7.552;2023-05-07T04:32:19;11.90;;;9.03;;
4986;SDS011;12674;51.500;7.552;2023-05-07T04:34:23;9.60;;;8.50;;
4986;SDS011;12674;51.500;7.552;2023-05-07T04:36:27;9.23;;;7.73;;
4986;SDS011;12674;51.500;7.552;2023-05-07T04:38:35;9.80;;;7.60;;
4986;SDS011;12674;51.500;7.552;2023-05-07T04:40:38;11.00;;;7.80;;
4986;SDS011;12674;51.500;7.552;2023-05-07T04:42:45;11.30;;;7.20;;
4986;SDS011;12674;51.500;7.552;2023-05-07T04:44:52;10.85;;;8.18;;
4986;SDS011;12674;51.500;7.552;2023-05-07T04:46:57;11.47;;;7.27;;
4986;SDS011;12674;51.500;7.552;2023-05-07T04:49:00;11.03;;;6.90;;
4986;SDS011;12674;51.500;7.552;2023-05-07T04:51:04;7.07;;;6.38;;
4986;SDS011;12674;51.500;7.552;2023-05-07T04:53:08;7.70;;;5.47;;
4986;SDS011;12674;51.500;7.552;2023-05-07T04:55:11;7.45;;;6.18;;
4986;SDS011;12674;51.500;7.552;2023-05-07T04:57:15;7.50;;;6.38;;
4986;SDS011;12674;51.500;7.552;2023-05-07T04:59:20;7.57;;;5.97;;
4986;SDS011;12674;51.500;7.552;2023-05-07T05:01:24;8.35;;;6.10;;
4986;SDS011;12674;51.500;7.552;2023-05-07T05:03:27;6.57;;;5.68;;
4986;SDS011;12674;51.500;7.552;2023-05-07T05:05:31;6.30;;;5.72;;
4986;SDS011;12674;51.500;7.552;2023-05-07T05:07:36;6.78;;;5.47;;
4986;SDS011;12674;51.500;7.552;2023-05-07T05:09:39;7.93;;;5.18;;
4986;SDS011;12674;51.500;7.552;2023-05-07T05:11:42;15.65;;;5.65;;
4986;SDS011;12674;51.500;7.552;2023-05-07T05:13:46;7.82;;;6.05;;
4986;SDS011;12674;51.500;7.552;2023-05-07T05:15:54;5.53;;;4.78;;
4986;SDS011;12674;51.500;7.552;2023-05-07T05:17:59;7.82;;;5.20;;
4986;SDS011;12674;51.500;7.552;2023-05-07T05:20:03;6.72;;;5.18;;
4986;SDS011;12674;51.500;7.552;2023-05-07T05:22:07;11.23;;;5.18;;
4986;SDS011;12674;51.500;7.552;2023-05-07T05:24:10;6.28;;;4.13;;
4986;SDS011;12674;51.500;7.552;2023-05-07T05:26:14;4.85;;;3.45;;
4986;SDS011;12674;51.500;7.552;2023-05-07T05:28:17;6.70;;;3.17;;
4986;SDS011;12674;51.500;7.552;2023-05-07T05:30:20;4.10;;;3.15;;
4986;SDS011;12674;51.500;7.552;2023-05-07T05:32:25;4.22;;;3.05;;
4986;SDS011;12674;51.500;7.552;2023-05-07T05:34:30;5.18;;;3.55;;
4986;SDS011;12674;51.500;7.552;2023-05-07T05:36:34;7.13;;;3.30;;
4986;SDS011;12674;51.500;7.552;2023-05-07T05:38:37;4.15;;;3.00;;
4986;SDS011;12674;51.500;7.552;2023-05-07T05:40:41;6.78;;;3.97;;
4986;SDS011;12674;51.500;7.552;2023-05-07T05:42:44;3.40;;;3.10;;
4986;SDS011;12674;51.500;7.552;2023-05-07T05:44:48;4.28;;;3.85;;
4986;SDS011;12674;51.500;7.552;2023-05-07T05:46:51;5.78;;;4.00;;
4986;SDS011;12674;51.500;7.552;2023-05-07T05:48:57;4.50;;;3.83;;
4986;SDS011;12674;51.500;7.552;2023-05-07T05:51:00;10.43;;;4.20;;
4986;SDS011;12674;51.500;7.552;2023-05-07T05:53:03;5.43;;;3.55;;
4986;SDS011;12674;51.500;7.552;2023-05-07T05:55:07;7.43;;;4.05;;
4986;SDS011;12674;51.500;7.552;2023-05-07T05:57:12;14.60;;;4.03;;
4986;SDS011;12674;51.500;7.552;2023-05-07T05:59:14;8.30;;;3.45;;
4986;SDS011;12674;51.500;7.552;2023-05-07T06:01:18;5.50;;;3.40;;
4986;SDS011;12674;51.500;7.552;2023-05-07T06:03:22;3.90;;;3.47;;
4986;SDS011;12674;51.500;7.552;2023-05-07T06:05:28;4.25;;;3.10;;
4986;SDS011;12674;51.500;7.552;2023-05-07T06:07:31;3.38;;;2.88;;
4986;SDS011;12674;51.500;7.552;2023-05-07T06:09:35;2.60;;;2.40;;
4986;SDS011;12674;51.500;7.552;2023-05-07T06:11:39;4.38;;;3.20;;
4986;SDS011;12674;51.500;7.552;2023-05-07T06:13:42;3.40;;;2.38;;
4986;SDS011;12674;51.500;7.552;2023-05-07T06:15:45;10.80;;;3.08;;
4986;SDS011;12674;51.500;7.552;2023-05-07T06:17:48;3.30;;;2.58;;
4986;SDS011;12674;51.500;7.552;2023-05-07T06:19:51;3.75;;;2.50;;
4986;SDS011;12674;51.500;7.552;2023-05-07T06:21:56;4.22;;;2.85;;
4986;SDS011;12674;51.500;7.552;2023-05-07T06:24:02;2.97;;;2.38;;
4986;SDS011;12674;51.500;7.552;2023-05-07T06:26:05;3.13;;;2.83;;
4986;SDS011;12674;51.500;7.552;2023-05-07T06:28:13;4.38;;;2.88;;
4986;SDS011;12674;51.500;7.552;2023-05-07T06:30:16;6.38;;;2.53;;
4986;SDS011;12674;51.500;7.552;2023-05-07T06:32:19;4.90;;;3.00;;
4986;SDS011;12674;51.500;7.552;2023-05-07T06:34:24;6.72;;;2.90;;
4986;SDS011;12674;51.500;7.552;2023-05-07T06:36:27;3.15;;;2.85;;
4986;SDS011;12674;51.500;7.552;2023-05-07T06:38:34;7.88;;;3.20;;
4986;SDS011;12674;51.500;7.552;2023-05-07T06:40:37;4.35;;;3.03;;
4986;SDS011;12674;51.500;7.552;2023-05-07T06:42:40;5.20;;;3.10;;
4986;SDS011;12674;51.500;7.552;2023-05-07T06:45:12;3.38;;;2.47;;
4986;SDS011;12674;51.500;7.552;2023-05-07T06:47:15;4.53;;;2.60;;
4986;SDS011;12674;51.500;7.552;2023-05-07T06:49:22;3.55;;;2.40;;
4986;SDS011;12674;51.500;7.552;2023-05-07T06:51:25;6.55;;;3.03;;
4986;SDS011;12674;51.500;7.552;2023-05-07T06:53:29;4.15;;;3.70;;
4986;SDS011;12674;51.500;7.552;2023-05-07T06:55:35;6.78;;;3.63;;
4986;SDS011;12674;51.500;7.552;2023-05-07T06:57:40;5.60;;;3.42;;
4986;SDS011;12674;51.500;7.552;2023-05-07T06:59:43;4.05;;;3.30;;
4986;SDS011;12674;51.500;7.552;2023-05-07T07:01:46;3.53;;;2.88;;
4986;SDS011;12674;51.500;7.552;2023-05-07T07:03:49;3.80;;;2.90;;
4986;SDS011;12674;51.500;7.552;2023-05-07T07:05:54;5.35;;;3.20;;
4986;SDS011;12674;51.500;7.552;2023-05-07T07:07:58;9.85;;;4.03;;
4986;SDS011;12674;51.500;7.552;2023-05-07T07:10:01;4.55;;;3.13;;
4986;SDS011;12674;51.500;7.552;2023-05-07T07:12:07;5.35;;;3.35;;
4986;SDS011;12674;51.500;7.552;2023-05-07T07:14:12;5.50;;;3.55;;
4986;SDS011;12674;51.500;7.552;2023-05-07T07:16:20;5.70;;;3.42;;
4986;SDS011;12674;51.500;7.552;2023-05-07T07:18:25;5.75;;;3.80;;
4986;SDS011;12674;51.500;7.552;2023-05-07T07:20:28;5.95;;;3.08;;
4986;SDS011;12674;51.500;7.552;2023-05-07T07:22:33;18.52;;;5.03;;
4986;SDS011;12674;51.500;7.552;2023-05-07T07:24:36;11.05;;;4.75;;
4986;SDS011;12674;51.500;7.552;2023-05-07T07:26:42;7.93;;;4.60;;
4986;SDS011;12674;51.500;7.552;2023-05-07T07:28:47;5.55;;;3.97;;
4986;SDS011;12674;51.500;7.552;2023-05-07T07:30:54;8.32;;;4.72;;
4986;SDS011;12674;51.500;7.552;2023-05-07T07:32:57;11.77;;;4.53;;
4986;SDS011;12674;51.500;7.552;2023-05-07T07:35:07;5.22;;;3.78;;
4986;SDS011;12674;51.500;7.552;2023-05-07T07:37:12;5.32;;;4.00;;
4986;SDS011;12674;51.500;7.552;2023-05-07T07:39:16;6.65;;;3.95;;
4986;SDS011;12674;51.500;7.552;2023-05-07T07:41:21;4.38;;;3.72;;
4986;SDS011;12674;51.500;7.552;2023-05-07T07:43:24;5.00;;;4.50;;
4986;SDS011;12674;51.500;7.552;2023-05-07T07:45:28;7.32;;;4.45;;
4986;SDS011;12674;51.500;7.552;2023-05-07T07:47:32;7.05;;;5.25;;
4986;SDS011;12674;51.500;7.552;2023-05-07T07:49:35;6.22;;;3.90;;
4986;SDS011;12674;51.500;7.552;2023-05-07T07:51:40;5.30;;;4.80;;
4986;SDS011;12674;51.500;7.552;2023-05-07T07:53:45;4.82;;;4.20;;
4986;SDS011;12674;51.500;7.552;2023-05-07T07:55:48;7.25;;;4.88;;
4986;SDS011;12674;51.500;7.552;2023-05-07T07:57:54;8.77;;;5.40;;
4986;SDS011;12674;51.500;7.552;2023-05-07T07:59:58;7.32;;;5.70;;
4986;SDS011;12674;51.500;7.552;2023-05-07T08:02:04;9.13;;;5.20;;
4986;SDS011;12674;51.500;7.552;2023-05-07T08:04:08;6.60;;;4.75;;
4986;SDS011;12674;51.500;7.552;2023-05-07T08:06:15;8.73;;;5.40;;
4986;SDS011;12674;51.500;7.552;2023-05-07T08:08:18;8.32;;;6.28;;
4986;SDS011;12674;51.500;7.552;2023-05-07T08:10:22;8.57;;;6.43;;
4986;SDS011;12674;51.500;7.552;2023-05-07T08:12:31;8.27;;;6.70;;
4986;SDS011;12674;51.500;7.552;2023-05-07T08:14:34;9.18;;;7.18;;
4986;SDS011;12674;51.500;7.552;2023-05-07T08:16:40;7.57;;;6.75;;
4986;SDS011;12674;51.500;7.552;2023-05-07T08:18:45;7.03;;;6.32;;
4986;SDS011;12674;51.500;7.552;2023-05-07T08:20:48;9.30;;;6.47;;
4986;SDS011;12674;51.500;7.552;2023-05-07T08:22:56;11.15;;;7.47;;
4986;SDS011;12674;51.500;7.552;2023-05-07T08:25:01;8.30;;;6.95;;
4986;SDS011;12674;51.500;7.552;2023-05-07T08:27:04;10.07;;;7.57;;
4986;SDS011;12674;51.500;7.552;2023-05-07T08:29:08;8.48;;;7.60;;
4986;SDS011;12674;51.500;7.552;2023-05-07T08:31:11;12.00;;;8.65;;
4986;SDS011;12674;51.500;7.552;2023-05-07T08:33:17;9.95;;;8.55;;
4986;SDS011;12674;51.500;7.552;2023-05-07T08:35:22;9.55;;;8.52;;
4986;SDS011;12674;51.500;7.552;2023-05-07T08:37:29;13.82;;;8.10;;
4986;SDS011;12674;51.500;7.552;2023-05-07T08:39:33;11.43;;;9.45;;
4986;SDS011;12674;51.500;7.552;2023-05-07T08:41:38;9.82;;;8.30;;
4986;SDS011;12674;51.500;7.552;2023-05-07T08:43:41;9.60;;;8.52;;
4986;SDS011;12674;51.500;7.552;2023-05-07T08:45:45;20.77;;;7.90;;
4986;SDS011;12674;51.500;7.552;2023-05-07T08:47:51;13.60;;;9.05;;
4986;SDS011;12674;51.500;7.552;2023-05-07T08:49:56;13.52;;;8.85;;
4986;SDS011;12674;51.500;7.552;2023-05-07T08:52:01;12.23;;;9.68;;
4986;SDS011;12674;51.500;7.552;2023-05-07T08:54:04;12.02;;;9.00;;
4986;SDS011;12674;51.500;7.552;2023-05-07T08:56:08;12.48;;;9.50;;
4986;SDS011;12674;51.500;7.552;2023-05-07T08:58:12;13.40;;;9.73;;
4986;SDS011;12674;51.500;7.552;2023-05-07T09:00:15;12.40;;;9.88;;
4986;SDS011;12674;51.500;7.552;2023-05-07T09:02:22;10.07;;;9.00;;
4986;SDS011;12674;51.500;7.552;2023-05-07T09:04:25;13.32;;;10.43;;
4986;SDS011;12674;51.500;7.552;2023-05-07T09:06:28;16.58;;;9.95;;
4986;SDS011;12674;51.500;7.552;2023-05-07T09:08:33;11.88;;;9.23;;
4986;SDS011;12674;51.500;7.552;2023-05-07T09:10:38;15.82;;;9.18;;
4986;SDS011;12674;51.500;7.552;2023-05-07T09:12:42;13.20;;;8.98;;
4986;SDS011;12674;51.500;7.552;2023-05-07T09:14:47;9.13;;;8.23;;
4986;SDS011;12674;51.500;7.552;2023-05-07T09:16:51;12.82;;;9.23;;
4986;SDS011;12674;51.500;7.552;2023-05-07T09:18:54;12.77;;;10.00;;
4986;SDS011;12674;51.500;7.552;2023-05-07T09:20:59;15.50;;;9.30;;
4986;SDS011;12674;51.500;7.552;2023-05-07T09:23:02;12.65;;;7.70;;
4986;SDS011;12674;51.500;7.552;2023-05-07T09:25:07;11.45;;;8.55;;
4986;SDS011;12674;51.500;7.552;2023-05-07T09:27:12;9.98;;;8.50;;
4986;SDS011;12674;51.500;7.552;2023-05-07T09:29:18;10.25;;;9.07;;
4986;SDS011;12674;51.500;7.552;2023-05-07T09:31:21;14.77;;;10.40;;
4986;SDS011;12674;51.500;7.552;2023-05-07T09:33:28;12.82;;;8.05;;
4986;SDS011;12674;51.500;7.552;2023-05-07T09:35:34;16.13;;;9.38;;
4986;SDS011;12674;51.500;7.552;2023-05-07T09:37:42;11.77;;;9.00;;
4986;SDS011;12674;51.500;7.552;2023-05-07T09:39:46;11.23;;;9.10;;
4986;SDS011;12674;51.500;7.552;2023-05-07T09:41:56;11.60;;;10.05;;
4986;SDS011;12674;51.500;7.552;2023-05-07T09:44:06;11.80;;;9.88;;
4986;SDS011;12674;51.500;7.552;2023-05-07T09:46:14;10.95;;;8.73;;
4986;SDS011;12674;51.500;7.552;2023-05-07T09:48:24;21.00;;;9.38;;
4986;SDS011;12674;51.500;7.552;2023-05-07T09:50:29;11.40;;;10.20;;
4986;SDS011;12674;51.500;7.552;2023-05-07T09:52:34;12.55;;;8.88;;
4986;SDS011;12674;51.500;7.552;2023-05-07T09:54:40;11.60;;;9.10;;
4986;SDS011;12674;51.500;7.552;2023-05-07T09:56:47;10.02;;;8.57;;
4986;SDS011;12674;51.500;7.552;2023-05-07T09:58:54;12.18;;;8.73;;
4986;SDS011;12674;51.500;7.552;2023-05-07T10:00:58;12.48;;;9.32;;
4986;SDS011;12674;51.500;7.552;2023-05-07T10:03:03;21.95;;;9.27;;
4986;SDS011;12674;51.500;7.552;2023-05-07T10:05:17;12.50;;;8.60;;
4986;SDS011;12674;51.500;7.552;2023-05-07T10:07:21;13.25;;;8.02;;
4986;SDS011;12674;51.500;7.552;2023-05-07T10:09:27;9.57;;;8.57;;
4986;SDS011;12674;51.500;7.552;2023-05-07T10:11:32;11.68;;;8.18;;
4986;SDS011;12674;51.500;7.552;2023-05-07T10:13:36;10.93;;;9.15;;
4986;SDS011;12674;51.500;7.552;2023-05-07T10:15:43;9.40;;;8.23;;
4986;SDS011;12674;51.500;7.552;2023-05-07T10:17:47;12.82;;;7.32;;
4986;SDS011;12674;51.500;7.552;2023-05-07T10:19:51;11.32;;;7.68;;
4986;SDS011;12674;51.500;7.552;2023-05-07T10:21:59;11.18;;;8.02;;
4986;SDS011;12674;51.500;7.552;2023-05-07T10:24:08;12.68;;;7.40;;
4986;SDS011;12674;51.500;7.552;2023-05-07T10:26:16;12.45;;;8.55;;
4986;SDS011;12674;51.500;7.552;2023-05-07T10:28:20;9.60;;;6.93;;
4986;SDS011;12674;51.500;7.552;2023-05-07T10:30:26;9.27;;;6.95;;
4986;SDS011;12674;51.500;7.552;2023-05-07T10:32:42;11.73;;;8.25;;
4986;SDS011;12674;51.500;7.552;2023-05-07T10:34:53;8.52;;;7.63;;
4986;SDS011;12674;51.500;7.552;2023-05-07T10:36:57;10.50;;;8.35;;
4986;SDS011;12674;51.500;7.552;2023-05-07T10:39:01;8.70;;;7.80;;
4986;SDS011;12674;51.500;7.552;2023-05-07T10:41:05;11.30;;;7.80;;
4986;SDS011;12674;51.500;7.552;2023-05-07T10:43:11;13.10;;;8.90;;
4986;SDS011;12674;51.500;7.552;2023-05-07T10:45:21;10.30;;;7.97;;
4986;SDS011;12674;51.500;7.552;2023-05-07T10:47:26;16.30;;;10.10;;
4986;SDS011;12674;51.500;7.552;2023-05-07T10:49:34;9.90;;;8.90;;
4986;SDS011;12674;51.500;7.552;2023-05-07T10:51:41;13.52;;;6.28;;
4986;SDS011;12674;51.500;7.552;2023-05-07T10:56:39;8.13;;;6.47;;
4986;SDS011;12674;51.500;7.552;2023-05-07T10:58:50;9.52;;;6.15;;
4986;SDS011;12674;51.500;7.552;2023-05-07T11:00:58;15.43;;;7.45;;
4986;SDS011;12674;51.500;7.552;2023-05-07T11:03:08;8.48;;;7.20;;
4986;SDS011;12674;51.500;7.552;2023-05-07T11:05:22;12.68;;;7.70;;
4986;SDS011;12674;51.500;7.552;2023-05-07T11:07:58;20.00;;;8.02;;
4986;SDS011;12674;51.500;7.552;2023-05-07T11:10:08;15.75;;;8.27;;
4986;SDS011;12674;51.500;7.552;2023-05-07T11:12:47;10.27;;;7.57;;
4986;SDS011;12674;51.500;7.552;2023-05-07T11:14:56;12.00;;;7.68;;
4986;SDS011;12674;51.500;7.552;2023-05-07T11:17:06;8.27;;;7.28;;
4986;SDS011;12674;51.500;7.552;2023-05-07T11:19:09;10.95;;;7.57;;
4986;SDS011;12674;51.500;7.552;2023-05-07T11:21:34;12.20;;;7.55;;
4986;SDS011;12674;51.500;7.552;2023-05-07T11:23:58;15.27;;;8.68;;
4986;SDS011;12674;51.500;7.552;2023-05-07T11:26:15;11.13;;;8.93;;
4986;SDS011;12674;51.500;7.552;2023-05-07T11:28:19;9.77;;;8.23;;
4986;SDS011;12674;51.500;7.552;2023-05-07T11:30:33;7.85;;;6.93;;
4986;SDS011;12674;51.500;7.552;2023-05-07T11:32:38;9.50;;;8.60;;
4986;SDS011;12674;51.500;7.552;2023-05-07T11:34:42;11.50;;;8.30;;
4986;SDS011;12674;51.500;7.552;2023-05-07T11:36:46;8.60;;;6.90;;
4986;SDS011;12674;51.500;7.552;2023-05-07T11:38:54;8.27;;;7.20;;
4986;SDS011;12674;51.500;7.552;2023-05-07T11:40:59;8.95;;;6.97;;
4986;SDS011;12674;51.500;7.552;2023-05-07T11:43:09;10.30;;;8.15;;
4986;SDS011;12674;51.500;7.552;2023-05-07T11:45:13;10.85;;;8.05;;
4986;SDS011;12674;51.500;7.552;2023-05-07T11:47:26;8.00;;;6.18;;
4986;SDS011;12674;51.500;7.552;2023-05-07T11:49:29;8.18;;;6.00;;
4986;SDS011;12674;51.500;7.552;2023-05-07T11:51:32;7.05;;;5.50;;
4986;SDS011;12674;51.500;7.552;2023-05-07T11:53:37;7.93;;;6.30;;
4986;SDS011;12674;51.500;7.552;2023-05-07T11:55:41;8.35;;;6.07;;
4986;SDS011;12674;51.500;7.552;2023-05-07T11:57:44;9.55;;;6.82;;
4986;SDS011;12674;51.500;7.552;2023-05-07T11:59:47;9.23;;;6.60;;
4986;SDS011;12674;51.500;7.552;2023-05-07T12:01:50;10.43;;;5.90;;
4986;SDS011;12674;51.500;7.552;2023-05-07T12:03:53;8.20;;;5.97;;
4986;SDS011;12674;51.500;7.552;2023-05-07T12:05:56;8.50;;;6.10;;
4986;SDS011;12674;51.500;7.552;2023-05-07T12:07:59;7.97;;;5.70;;
4986;SDS011;12674;51.500;7.552;2023-05-07T12:10:05;10.52;;;8.57;;
4986;SDS011;12674;51.500;7.552;2023-05-07T12:12:09;10.82;;;8.68;;
4986;SDS011;12674;51.500;7.552;2023-05-07T12:14:11;12.10;;;7.32;;
4986;SDS011;12674;51.500;7.552;2023-05-07T12:16:14;11.68;;;7.65;;
4986;SDS011;12674;51.500;7.552;2023-05-07T12:18:18;12.27;;;6.18;;
4986;SDS011;12674;51.500;7.552;2023-05-07T12:20:21;12.32;;;7.53;;
4986;SDS011;12674;51.500;7.552;2023-05-07T12:22:24;13.55;;;8.55;;
4986;SDS011;12674;51.500;7.552;2023-05-07T12:24:27;8.48;;;7.57;;
4986;SDS011;12674;51.500;7.552;2023-05-07T12:26:31;8.45;;;6.82;;
4986;SDS011;12674;51.500;7.552;2023-05-07T12:28:37;9.70;;;7.70;;
4986;SDS011;12674;51.500;7.552;2023-05-07T12:30:41;9.15;;;6.78;;
4986;SDS011;12674;51.500;7.552;2023-05-07T12:32:45;9.82;;;7.68;;
4986;SDS011;12674;51.500;7.552;2023-05-07T12:34:49;8.30;;;6.22;;
4986;SDS011;12674;51.500;7.552;2023-05-07T12:36:55;11.23;;;7.40;;
4986;SDS011;12674;51.500;7.552;2023-05-07T12:38:58;15.48;;;6.38;;
4986;SDS011;12674;51.500;7.552;2023-05-07T12:41:02;8.20;;;6.40;;
4986;SDS011;12674;51.500;7.552;2023-05-07T12:43:06;9.60;;;6.43;;